Time,TemperatureF,DewpointF,PressureIn,WindDirection,WindDirectionDegrees,WindSpeedMPH,WindSpeedGustMPH,Humidity,HourlyPrecipIn,Conditions,Clouds,dailyrainin,SoftwareType,DateUTC
2017-12-18 00:03:00,34.3,32.8,28.98,South,172,1.7,4.6,94,0.00,,,0.00,proprietary,2017-12-18 05:03:00,
2017-12-18 00:08:00,34.3,32.9,28.98,SW,216,2.5,3.6,94,0.00,,,0.00,proprietary,2017-12-18 05:08:00,
2017-12-18 00:13:00,34.3,32.8,28.98,SW,225,2.7,5.0,94,0.00,,,0.00,proprietary,2017-12-18 05:13:00,
2017-12-18 00:18:00,34.3,32.9,28.98,SW,214,1.5,3.0,94,0.00,,,0.00,proprietary,2017-12-18 05:18:00,
2017-12-18 00:23:00,34.4,33.0,28.98,SW,228,2.0,3.3,94,0.00,,,0.00,proprietary,2017-12-18 05:23:00,
2017-12-18 00:25:00,34.4,33.0,28.98,SW,222,2.5,4.0,94,0.00,,,0.00,proprietary,2017-12-18 05:25:00,
2017-12-18 00:30:00,34.6,33.1,28.97,SSW,213,1.0,3.5,94,0.00,,,0.00,proprietary,2017-12-18 05:30:00,
2017-12-18 00:33:00,34.6,33.1,28.97,WSW,241,2.6,4.1,94,0.00,,,0.00,proprietary,2017-12-18 05:33:00,
2017-12-18 00:38:00,34.7,33.2,28.96,WSW,244,1.9,3.5,94,0.00,,,0.00,proprietary,2017-12-18 05:38:00,
2017-12-18 00:43:00,34.5,33.1,28.96,SSW,202,3.8,5.1,94,0.00,,,0.00,proprietary,2017-12-18 05:43:00,
2017-12-18 00:48:00,34.3,33.0,28.95,SSW,203,2.3,3.1,94,0.00,,,0.00,proprietary,2017-12-18 05:48:00,
2017-12-18 00:53:00,34.4,33.1,28.95,North,0,0.0,0.0,94,0.00,,,0.00,proprietary,2017-12-18 05:53:00,
2017-12-18 00:58:00,34.3,33.0,28.96,SW,225,0.6,1.3,94,0.00,,,0.00,proprietary,2017-12-18 05:58:00,
2017-12-18 01:03:00,34.4,33.2,28.95,SSW,210,2.0,2.9,95,0.00,,,0.00,proprietary,2017-12-18 06:03:00,
2017-12-18 01:08:00,34.5,33.3,28.95,WSW,244,2.5,3.5,95,0.00,,,0.00,proprietary,2017-12-18 06:08:00,
2017-12-18 01:09:00,34.6,33.3,28.95,SW,228,0.8,1.9,95,0.00,,,0.00,proprietary,2017-12-18 06:09:00,
2017-12-18 01:15:00,34.7,33.4,28.95,SSW,206,0.5,1.6,95,0.00,,,0.00,proprietary,2017-12-18 06:15:00,
2017-12-18 01:19:00,34.9,33.7,28.95,SW,230,3.6,4.8,95,0.00,,,0.00,proprietary,2017-12-18 06:19:00,
2017-12-18 01:24:00,35.0,33.6,28.95,WSW,253,1.8,3.0,94,0.00,,,0.00,proprietary,2017-12-18 06:24:00,
2017-12-18 01:29:00,35.1,33.7,28.95,SSW,197,2.3,4.9,94,0.00,,,0.00,proprietary,2017-12-18 06:29:00,
2017-12-18 01:34:00,35.3,33.9,28.95,SW,227,2.8,4.5,94,0.00,,,0.00,proprietary,2017-12-18 06:34:00,
2017-12-18 01:39:00,35.4,33.9,28.95,SSW,213,2.4,3.5,94,0.00,,,0.00,proprietary,2017-12-18 06:39:00,
2017-12-18 01:43:00,35.4,33.8,28.95,WSW,250,2.3,2.7,93,0.00,,,0.00,proprietary,2017-12-18 06:43:00,
2017-12-18 01:48:00,35.6,34.0,28.95,West,265,3.0,4.0,94,0.00,,,0.00,proprietary,2017-12-18 06:48:00,
2017-12-18 01:53:00,35.6,34.0,28.95,SW,214,3.5,4.4,93,0.00,,,0.00,proprietary,2017-12-18 06:53:00,
2017-12-18 01:58:00,35.7,34.1,28.95,WSW,243,2.9,4.3,93,0.00,,,0.00,proprietary,2017-12-18 06:58:00,
2017-12-18 02:03:00,35.7,34.2,28.95,SSW,208,3.7,5.3,93,0.00,,,0.00,proprietary,2017-12-18 07:03:00,
2017-12-18 02:08:00,35.8,34.2,28.95,SW,229,4.5,6.0,93,0.00,,,0.00,proprietary,2017-12-18 07:08:00,
2017-12-18 02:13:00,36.0,34.4,28.95,SW,235,4.3,5.9,93,0.00,,,0.00,proprietary,2017-12-18 07:13:00,
2017-12-18 02:18:00,36.3,34.5,28.95,SW,229,3.6,4.7,92,0.00,,,0.00,proprietary,2017-12-18 07:18:00,
2017-12-18 02:23:00,36.5,34.6,28.94,SW,223,4.6,7.9,92,0.00,,,0.00,proprietary,2017-12-18 07:23:00,
2017-12-18 02:29:00,36.7,34.8,28.94,SW,226,4.5,5.8,92,0.00,,,0.00,proprietary,2017-12-18 07:29:00,
2017-12-18 02:34:00,36.8,34.8,28.94,SW,221,5.7,7.9,92,0.00,,,0.00,proprietary,2017-12-18 07:34:00,
2017-12-18 02:39:00,37.0,34.9,28.94,WSW,241,3.7,4.5,92,0.00,,,0.00,proprietary,2017-12-18 07:39:00,
2017-12-18 02:44:00,36.9,34.8,28.95,WSW,246,3.8,5.2,92,0.00,,,0.00,proprietary,2017-12-18 07:44:00,
2017-12-18 02:49:00,37.0,35.0,28.95,SW,234,5.7,7.0,92,0.00,,,0.00,proprietary,2017-12-18 07:49:00,
2017-12-18 02:50:00,37.0,35.0,28.95,WSW,238,3.8,5.4,92,0.00,,,0.00,proprietary,2017-12-18 07:50:00,
2017-12-18 02:55:00,37.1,35.1,28.95,WSW,239,6.4,9.3,92,0.00,,,0.00,proprietary,2017-12-18 07:55:00,
2017-12-18 03:00:00,37.2,35.1,28.95,WSW,238,2.2,2.9,92,0.00,,,0.00,proprietary,2017-12-18 08:00:00,
2017-12-18 03:05:00,37.3,35.2,28.94,SW,214,6.4,7.8,92,0.00,,,0.00,proprietary,2017-12-18 08:05:00,
2017-12-18 03:10:00,37.3,35.3,28.94,SW,227,2.8,4.5,92,0.00,,,0.00,proprietary,2017-12-18 08:10:00,
2017-12-18 03:15:00,37.4,35.4,28.94,SW,234,2.8,4.4,92,0.00,,,0.00,proprietary,2017-12-18 08:15:00,
2017-12-18 03:20:00,37.4,35.4,28.94,SW,223,2.4,3.9,92,0.00,,,0.00,proprietary,2017-12-18 08:20:00,
2017-12-18 03:25:00,37.3,35.3,28.94,WSW,239,2.3,3.6,92,0.00,,,0.00,proprietary,2017-12-18 08:25:00,
2017-12-18 03:30:00,37.4,35.4,28.94,SSW,207,5.2,6.3,92,0.00,,,0.00,proprietary,2017-12-18 08:30:00,
2017-12-18 03:35:00,37.3,35.4,28.94,SSW,213,3.1,4.6,92,0.00,,,0.00,proprietary,2017-12-18 08:35:00,
2017-12-18 03:39:00,37.3,35.4,28.94,SW,222,3.9,5.6,92,0.00,,,0.00,proprietary,2017-12-18 08:39:00,
2017-12-18 03:44:00,37.3,35.4,28.94,SSW,199,5.0,7.8,92,0.00,,,0.00,proprietary,2017-12-18 08:44:00,
2017-12-18 03:49:00,37.2,35.5,28.94,SW,217,6.4,8.7,93,0.00,,,0.00,proprietary,2017-12-18 08:49:00,
2017-12-18 03:54:00,37.5,35.5,28.94,SSW,206,2.8,4.0,92,0.00,,,0.00,proprietary,2017-12-18 08:54:00,
2017-12-18 03:59:00,37.4,35.6,28.93,SW,234,3.6,4.8,93,0.00,,,0.00,proprietary,2017-12-18 08:59:00,
2017-12-18 04:05:00,37.3,35.5,28.93,SW,226,3.2,4.7,93,0.00,,,0.00,proprietary,2017-12-18 09:05:00,
2017-12-18 04:12:00,37.4,35.7,28.93,SSW,210,3.3,4.0,93,0.00,,,0.00,proprietary,2017-12-18 09:12:00,
2017-12-18 04:19:00,37.5,35.7,28.93,SW,222,4.2,5.6,93,0.00,,,0.00,proprietary,2017-12-18 09:19:00,
2017-12-18 04:24:00,37.5,35.8,28.93,SW,218,3.8,6.5,93,0.00,,,0.00,proprietary,2017-12-18 09:24:00,
2017-12-18 04:29:00,37.4,35.7,28.93,SW,216,2.0,2.8,93,0.00,,,0.00,proprietary,2017-12-18 09:29:00,
2017-12-18 04:32:00,37.3,35.6,28.93,SW,215,2.5,3.6,93,0.00,,,0.00,proprietary,2017-12-18 09:32:00,
2017-12-18 04:33:00,37.2,35.5,28.93,SW,217,2.8,4.3,93,0.00,,,0.00,proprietary,2017-12-18 09:33:00,
2017-12-18 04:38:00,37.3,35.7,28.92,SSW,210,1.7,2.8,93,0.00,,,0.00,proprietary,2017-12-18 09:38:00,